Time;durP1;ratioP1;P1;durP2;ratioP2;P2;SDS_P1;SDS_P2;PMS_P1;PMS_P2;Temp;Humidity;BMP_temperature;BMP_pressure;BME280_temperature;BME280_humidity;BME280_pressure;Samples;Min_cycle;Max_cycle;Signal;HPM_P1;HPM_P2
2021/12/26 00:01:09;;;;;;;9.88;8.68;;;;;;;-1.12;67.45;93922.16;1694462;83;20980;-54
2021/12/26 00:03:40;;;;;;;11.22;9.25;;;;;;;-1.15;67.27;93915.61;1700935;83;21020;-55
2021/12/26 00:06:15;;;;;;;10.32;8.58;;;;;;;-1.15;67.11;93924.30;1681973;84;21117;-54
2021/12/26 00:08:43;;;;;;;9.15;7.95;;;;;;;-1.19;67.28;93922.96;1685394;83;21012;-54
2021/12/26 00:11:10;;;;;;;16.30;10.50;;;;;;;-1.11;67.13;93923.70;1665516;83;21059;-55
2021/12/26 00:13:39;;;;;;;19.40;12.05;;;;;;;-1.11;66.74;93919.05;1691550;83;21429;-54
2021/12/26 00:16:06;;;;;;;20.90;13.80;;;;;;;-1.17;66.72;93922.58;1689596;83;20988;-54
2021/12/26 00:18:36;;;;;;;24.15;13.95;;;;;;;-1.22;67.00;93918.92;1671868;83;21152;-55
2021/12/26 00:21:03;;;;;;;23.12;14.03;;;;;;;-1.23;67.05;93922.78;1681180;84;21166;-54
2021/12/26 00:23:31;;;;;;;17.17;11.63;;;;;;;-1.23;66.84;93921.44;1683123;83;21535;-54
2021/12/26 00:25:58;;;;;;;16.85;11.30;;;;;;;-1.28;66.91;93937.47;1699308;83;21444;-54
2021/12/26 00:28:28;;;;;;;18.48;12.53;;;;;;;-1.29;67.17;93944.59;1687064;83;20977;-54
2021/12/26 00:30:54;;;;;;;22.48;13.60;;;;;;;-1.23;67.16;93950.55;1688486;83;21170;-54
2021/12/26 00:33:28;;;;;;;20.65;12.78;;;;;;;-1.17;66.88;93950.91;1687146;83;21000;-54
2021/12/26 00:35:59;;;;;;;20.02;13.48;;;;;;;-1.16;67.09;93954.55;1691327;83;21488;-55
2021/12/26 00:38:27;;;;;;;23.42;14.00;;;;;;;-1.07;66.95;93954.13;1697007;82;22495;-54
2021/12/26 00:40:54;;;;;;;25.15;15.43;;;;;;;-1.07;66.77;93959.52;1680468;83;20968;-54
2021/12/26 00:43:23;;;;;;;37.08;18.12;;;;;;;-1.14;66.82;93959.56;1686907;83;21997;-54
2021/12/26 00:45:50;;;;;;;68.33;30.27;;;;;;;-1.17;67.11;93958.41;1707836;83;20965;-54
2021/12/26 00:48:17;;;;;;;77.87;32.35;;;;;;;-1.23;67.18;93961.90;1703833;84;20989;-54
2021/12/26 00:50:44;;;;;;;61.13;27.58;;;;;;;-1.23;67.54;93964.59;1683835;83;20993;-54
2021/12/26 00:53:13;;;;;;;62.83;27.20;;;;;;;-1.19;67.46;93958.59;1705600;84;21012;-54
2021/12/26 00:55:40;;;;;;;65.97;29.02;;;;;;;-1.13;67.39;93953.00;1697521;83;21173;-54
2021/12/26 00:58:07;;;;;;;39.90;19.98;;;;;;;-1.09;67.30;93952.40;1703664;83;20972;-54
2021/12/26 01:00:42;;;;;;;30.90;17.48;;;;;;;-1.07;66.99;93951.42;1684415;83;20976;-55
2021/12/26 01:03:11;;;;;;;33.15;17.50;;;;;;;-1.13;67.05;93945.66;1689406;83;21060;-55
2021/12/26 01:05:41;;;;;;;72.60;30.52;;;;;;;-1.15;67.10;93941.24;1697286;83;20996;-59
2021/12/26 01:08:10;;;;;;;43.87;21.80;;;;;;;-1.12;67.13;93942.40;1681635;83;21814;-55
2021/12/26 01:10:44;;;;;;;27.87;16.02;;;;;;;-1.07;67.11;93939.28;1695670;83;21055;-55
2021/12/26 01:13:29;;;;;;;21.97;13.62;;;;;;;-1.11;66.64;93937.94;1694723;83;21059;-54
2021/12/26 01:15:50;;;;;;;32.25;17.48;;;;;;;-1.23;66.78;93931.66;1695415;83;21030;-54
2021/12/26 01:18:21;;;;;;;32.65;17.52;;;;;;;-1.33;66.90;93923.02;1692596;83;21024;-54
2021/12/26 01:20:56;;;;;;;24.75;15.32;;;;;;;-1.45;67.24;93930.21;1691379;83;21140;-53
2021/12/26 01:23:21;;;;;;;19.30;12.78;;;;;;;-1.47;67.52;93931.75;1706582;83;21044;-54
2021/12/26 01:25:50;;;;;;;27.93;15.85;;;;;;;-1.51;67.78;93932.35;1686682;83;21055;-54
2021/12/26 01:28:21;;;;;;;29.77;18.15;;;;;;;-1.47;67.87;93927.70;1682056;83;21123;-54
2021/12/26 01:30:50;;;;;;;24.65;13.88;;;;;;;-1.48;67.92;93924.23;1698684;83;21028;-55
2021/12/26 01:33:19;;;;;;;22.70;14.18;;;;;;;-1.38;68.17;93919.95;1666888;84;21031;-54
2021/12/26 01:35:54;;;;;;;35.90;20.55;;;;;;;-1.34;67.60;93926.13;1674772;83;20981;-55
2021/12/26 01:38:22;;;;;;;22.58;14.35;;;;;;;-1.42;67.65;93927.30;1637823;83;21044;-55
2021/12/26 01:40:54;;;;;;;22.40;13.93;;;;;;;-1.44;67.90;93917.48;1697796;83;21095;-55
2021/12/26 01:43:30;;;;;;;30.75;18.37;;;;;;;-1.38;67.84;93928.04;1687204;84;20989;-55
2021/12/26 01:45:58;;;;;;;26.62;16.95;;;;;;;-1.49;67.66;93921.94;1689723;83;24730;-54
2021/12/26 01:48:27;;;;;;;25.02;17.40;;;;;;;-1.55;68.03;93928.88;1680408;83;21421;-54
2021/12/26 01:50:54;;;;;;;33.40;20.08;;;;;;;-1.51;68.35;93924.26;1695456;84;20964;-54
2021/12/26 01:53:24;;;;;;;22.22;13.68;;;;;;;-1.47;68.05;93925.77;1691583;83;21553;-55
2021/12/26 01:55:53;;;;;;;21.48;14.50;;;;;;;-1.46;68.03;93930.59;1688591;83;21541;-55
2021/12/26 01:58:24;;;;;;;21.20;14.23;;;;;;;-1.48;68.28;93934.27;1673693;83;21174;-55
2021/12/26 02:01:01;;;;;;;16.35;11.93;;;;;;;-1.41;68.35;93932.31;1686295;83;21124;-54
2021/12/26 02:03:28;;;;;;;21.27;14.18;;;;;;;-1.36;67.86;93936.54;1697568;84;20989;-55
2021/12/26 02:05:57;;;;;;;24.43;16.17;;;;;;;-1.38;67.96;93930.17;1694370;83;21481;-54
2021/12/26 02:08:26;;;;;;;26.73;17.67;;;;;;;-1.30;68.03;93932.27;1699042;83;21437;-55
2021/12/26 02:10:52;;;;;;;23.22;17.77;;;;;;;-1.20;67.76;93918.73;1683453;83;21133;-55
2021/12/26 02:13:21;;;;;;;19.95;15.53;;;;;;;-1.15;67.41;93911.56;1703585;84;21051;-55
2021/12/26 02:15:51;;;;;;;26.12;17.40;;;;;;;-1.14;67.27;93916.39;1695815;83;21035;-54
2021/12/26 02:18:20;;;;;;;19.00;14.28;;;;;;;-1.14;67.01;93917.74;1690328;82;21036;-55
2021/12/26 02:23:24;;;;;;;17.52;12.10;;;;;;;-1.26;66.81;93926.27;1699708;83;21146;-55
2021/12/26 02:28:26;;;;;;;16.75;12.30;;;;;;;-1.39;66.99;93916.50;1656656;83;21436;-54
2021/12/26 02:30:56;;;;;;;19.40;11.97;;;;;;;-1.42;67.16;93916.51;1707347;83;21017;-54
2021/12/26 02:33:23;;;;;;;15.18;11.70;;;;;;;-1.36;67.19;93919.00;1694426;83;20968;-54
2021/12/26 02:35:53;;;;;;;19.27;12.58;;;;;;;-1.35;66.98;93923.99;1696772;83;21157;-54
2021/12/26 02:38:20;;;;;;;23.18;14.78;;;;;;;-1.29;66.76;93925.70;1698302;82;21135;-55
2021/12/26 02:40:48;;;;;;;23.47;14.68;;;;;;;-1.28;66.90;93927.24;1686535;83;21020;-54
2021/12/26 02:43:18;;;;;;;24.60;16.00;;;;;;;-1.16;66.75;93926.81;1690059;83;21000;-54
2021/12/26 02:45:47;;;;;;;37.63;20.97;;;;;;;-1.11;66.28;93932.55;1662167;84;20969;-53
2021/12/26 02:48:14;;;;;;;34.03;19.02;;;;;;;-1.05;66.31;93932.34;1680566;83;21131;-54
2021/12/26 02:50:41;;;;;;;26.15;16.30;;;;;;;-1.04;65.76;93935.23;1683457;84;21059;-54
2021/12/26 02:53:11;;;;;;;25.08;15.53;;;;;;;-1.09;65.84;93929.47;1696001;83;21520;-53
2021/12/26 02:55:37;;;;;;;24.60;16.12;;;;;;;-1.08;65.53;93921.56;1703449;84;20973;-54
2021/12/26 02:58:08;;;;;;;27.35;16.87;;;;;;;-1.13;65.72;93931.42;1703285;83;20961;-54
2021/12/26 03:00:44;;;;;;;25.12;15.18;;;;;;;-1.08;65.74;93926.95;1703868;84;21132;-54
2021/12/26 03:03:13;;;;;;;12.85;9.38;;;;;;;-0.99;65.47;93931.36;1692475;83;21120;-54
2021/12/26 03:05:43;;;;;;;9.60;8.60;;;;;;;-1.05;65.01;93929.64;1662062;84;21020;-54
2021/12/26 03:08:13;;;;;;;14.55;10.20;;;;;;;-1.11;64.99;93943.94;1697045;83;21539;-54
2021/12/26 03:10:39;;;;;;;20.57;11.75;;;;;;;-1.04;64.91;93950.07;1681609;83;21020;-55
2021/12/26 03:13:09;;;;;;;25.55;15.28;;;;;;;-1.02;64.51;93937.52;1700507;83;22090;-54
2021/12/26 03:15:36;;;;;;;30.62;17.57;;;;;;;-1.12;64.58;93937.00;1680168;83;20976;-54
2021/12/26 03:18:04;;;;;;;44.83;24.85;;;;;;;-1.14;64.78;93935.28;1642630;83;20981;-53
2021/12/26 03:20:38;;;;;;;33.75;20.23;;;;;;;-1.16;64.76;93930.86;1698708;83;21028;-54
2021/12/26 03:23:05;;;;;;;;;;;;;;;-1.17;64.55;93934.13;1693574;83;20997;-55
2021/12/26 03:25:34;;;;;;;16.75;11.33;;;;;;;-1.21;64.75;93951.48;1683711;83;21085;-54
2021/12/26 03:28:04;;;;;;;16.02;12.18;;;;;;;-1.25;64.60;93946.69;1680889;83;21019;-54
2021/12/26 03:30:30;;;;;;;13.00;10.93;;;;;;;-1.29;64.48;93948.63;1696570;83;20992;-54
2021/12/26 03:33:00;;;;;;;11.48;9.68;;;;;;;-1.33;64.86;93944.59;1693118;83;21029;-55
2021/12/26 03:35:28;;;;;;;10.00;9.03;;;;;;;-1.29;64.76;93946.69;1687428;83;21087;-53
2021/12/26 03:37:57;;;;;;;12.15;8.88;;;;;;;-1.28;64.63;93944.21;1674633;82;21170;-53
2021/12/26 03:40:38;;;;;;;9.23;8.43;;;;;;;-1.21;64.72;93941.47;1671473;83;21067;-54
2021/12/26 03:43:07;;;;;;;9.50;8.53;;;;;;;-1.11;64.40;93949.33;1704443;83;21012;-54
2021/12/26 03:45:35;;;;;;;12.03;9.50;;;;;;;-1.13;64.18;93953.00;1673687;83;20972;-54
2021/12/26 03:48:05;;;;;;;14.73;10.85;;;;;;;-1.19;64.28;93952.64;1681753;83;21178;-54
2021/12/26 03:50:33;;;;;;;9.55;8.63;;;;;;;-1.11;64.31;93958.77;1688890;83;21121;-54
2021/12/26 03:53:02;;;;;;;35.05;17.20;;;;;;;-1.08;63.93;93955.28;1688209;83;21118;-54
2021/12/26 03:55:32;;;;;;;59.73;25.32;;;;;;;-1.06;63.57;93955.66;1677400;84;21017;-54
2021/12/26 03:58:02;;;;;;;66.75;26.65;;;;;;;-1.13;63.84;93953.76;1676478;83;21516;-54
2021/12/26 04:00:31;;;;;;;99.37;35.78;;;;;;;-1.16;63.90;93940.30;1689870;83;21044;-54
2021/12/26 04:02:58;;;;;;;61.15;25.52;;;;;;;-1.22;63.93;93938.59;1669968;84;21954;-55
2021/12/26 04:05:26;;;;;;;42.62;21.62;;;;;;;-1.21;63.99;93942.04;1708378;83;20972;-54
2021/12/26 04:07:54;;;;;;;106.45;43.73;;;;;;;-1.25;63.88;93946.69;1714209;83;21012;-54
2021/12/26 04:10:23;;;;;;;87.65;41.37;;;;;;;-1.33;63.95;93946.54;1706909;83;21012;-55
2021/12/26 04:12:53;;;;;;;81.97;35.45;;;;;;;-1.42;64.66;93946.17;1703320;84;21077;-54
2021/12/26 04:15:22;;;;;;;31.33;18.30;;;;;;;-1.40;64.62;93953.29;1708897;83;21239;-54
2021/12/26 04:17:52;;;;;;;47.88;22.67;;;;;;;-1.43;64.79;93954.08;1678063;83;21515;-54
2021/12/26 04:20:22;;;;;;;38.40;20.68;;;;;;;-1.49;65.10;93954.30;1702689;83;21080;-55
2021/12/26 04:22:51;;;;;;;21.93;12.93;;;;;;;-1.46;65.27;93950.81;1702185;84;20973;-55
2021/12/26 04:25:20;;;;;;;16.17;11.63;;;;;;;-1.51;65.00;93956.02;1672520;83;21464;-54
2021/12/26 04:27:49;;;;;;;16.48;10.58;;;;;;;-1.62;65.41;93961.26;1690715;83;21942;-54
2021/12/26 04:30:16;;;;;;;16.87;11.85;;;;;;;-1.60;65.84;93967.81;1686990;83;20956;-54
2021/12/26 04:32:43;;;;;;;14.60;11.75;;;;;;;-1.53;65.81;93969.72;1693370;83;21480;-55
2021/12/26 04:35:13;;;;;;;17.37;11.80;;;;;;;-1.47;65.64;93967.56;1701292;84;21088;-54
2021/12/26 04:37:40;;;;;;;27.65;17.35;;;;;;;-1.41;65.46;93971.98;1701053;83;21048;-54
2021/12/26 04:40:09;;;;;;;21.35;15.03;;;;;;;-1.42;65.38;93974.48;1704742;83;21164;-55
2021/12/26 04:42:39;;;;;;;29.07;19.30;;;;;;;-1.46;65.59;93978.56;1702377;84;20968;-56
2021/12/26 04:45:19;;;;;;;46.35;24.35;;;;;;;-1.44;65.37;93981.64;1647606;83;21068;-55
2021/12/26 04:47:53;;;;;;;52.30;29.45;;;;;;;-1.47;65.73;93977.59;1644810;83;21015;-54
2021/12/26 04:50:23;;;;;;;55.98;29.23;;;;;;;-1.40;65.70;93979.70;1703722;83;21028;-54
2021/12/26 04:52:56;;;;;;;63.78;30.85;;;;;;;-1.39;65.50;93985.84;1683683;83;21151;-54
2021/12/26 04:55:26;;;;;;;54.67;31.37;;;;;;;-1.42;65.42;93979.88;1689939;83;21004;-54
2021/12/26 04:57:56;;;;;;;50.85;32.53;;;;;;;-1.45;65.53;93982.80;1687029;83;21032;-55
2021/12/26 05:00:28;;;;;;;42.15;27.65;;;;;;;-1.41;65.95;93981.42;1702888;83;21499;-52
2021/12/26 05:02:56;;;;;;;34.80;21.97;;;;;;;-1.26;65.76;93989.09;1702444;83;21056;-53
2021/12/26 05:05:26;;;;;;;27.15;17.82;;;;;;;-1.23;65.15;93994.27;1686681;84;21102;-54
2021/12/26 05:07:54;;;;;;;33.10;18.62;;;;;;;-1.27;65.43;93996.22;1679752;83;21147;-53
2021/12/26 05:10:24;;;;;;;38.17;19.87;;;;;;;-1.25;65.15;93988.50;1695131;83;21567;-54
2021/12/26 05:12:52;;;;;;;24.20;15.20;;;;;;;-1.25;65.35;93996.03;1685705;83;21603;-56
2021/12/26 05:15:21;;;;;;;19.75;13.43;;;;;;;-1.25;65.06;93999.29;1683716;83;21004;-54
2021/12/26 05:17:50;;;;;;;23.90;16.15;;;;;;;-1.32;65.02;94001.42;1695009;84;21173;-54
2021/12/26 05:20:21;;;;;;;27.45;17.60;;;;;;;-1.38;65.28;94006.25;1686586;84;20957;-54
2021/12/26 05:22:50;;;;;;;30.35;15.72;;;;;;;-1.39;65.32;94002.02;1697310;84;21020;-54
2021/12/26 05:25:17;;;;;;;24.92;14.70;;;;;;;-1.41;65.34;94002.99;1707185;83;20949;-53
2021/12/26 05:27:46;;;;;;;21.70;13.80;;;;;;;-1.44;65.30;94004.56;1703345;84;21440;-53
2021/12/26 05:30:16;;;;;;;17.80;12.45;;;;;;;-1.45;65.41;94006.29;1703395;84;21212;-54
2021/12/26 05:32:44;;;;;;;15.53;11.68;;;;;;;-1.41;65.59;94011.09;1699915;83;21493;-54
2021/12/26 05:35:13;;;;;;;21.10;13.45;;;;;;;-1.36;65.47;94014.16;1686556;83;20988;-54
2021/12/26 05:37:40;;;;;;;17.15;11.90;;;;;;;-1.35;65.33;94010.89;1675379;83;21602;-54
2021/12/26 05:40:11;;;;;;;18.25;11.97;;;;;;;-1.37;65.33;94016.67;1678494;83;21001;-54
2021/12/26 05:42:43;;;;;;;18.60;12.25;;;;;;;-1.46;65.46;94022.28;1703042;84;21084;-54
2021/12/26 05:45:11;;;;;;;17.42;12.60;;;;;;;-1.48;65.93;94021.30;1700691;83;21520;-54
2021/12/26 05:47:40;;;;;;;19.73;13.95;;;;;;;-1.44;65.96;94036.14;1660148;84;21537;-54
2021/12/26 05:50:14;;;;;;;16.10;12.60;;;;;;;-1.42;65.81;94038.65;1694436;84;20977;-54
2021/12/26 05:52:41;;;;;;;17.85;13.35;;;;;;;-1.36;65.77;94046.52;1688459;83;21087;-54
2021/12/26 05:55:14;;;;;;;18.55;12.82;;;;;;;-1.34;65.93;94049.60;1703747;84;21169;-54
2021/12/26 05:57:41;;;;;;;19.25;13.50;;;;;;;-1.26;65.89;94037.66;1703228;84;21005;-54
2021/12/26 06:00:12;;;;;;;33.00;18.40;;;;;;;-1.17;65.73;94040.70;1679439;84;21078;-54
2021/12/26 06:02:41;;;;;;;32.30;19.00;;;;;;;-1.05;65.69;94040.84;1691554;83;21151;-54
2021/12/26 06:05:08;;;;;;;43.42;22.30;;;;;;;-1.00;65.16;94045.27;1680064;83;21000;-54
2021/12/26 06:07:36;;;;;;;48.35;25.85;;;;;;;-1.05;65.11;94039.50;1676852;83;21241;-55
2021/12/26 06:10:05;;;;;;;54.67;28.05;;;;;;;-1.03;65.13;94047.97;1697734;84;21001;-54
2021/12/26 06:12:34;;;;;;;42.65;23.42;;;;;;;-1.06;64.93;94048.76;1693566;83;21465;-54
2021/12/26 06:15:08;;;;;;;41.10;24.72;;;;;;;-1.07;65.07;94051.27;1686300;84;21515;-56
2021/12/26 06:17:36;;;;;;;34.88;21.90;;;;;;;-1.10;64.75;94050.70;1703166;84;20969;-54
2021/12/26 06:20:22;;;;;;;38.53;23.15;;;;;;;-1.21;64.76;94049.95;1705549;83;21211;-56
2021/12/26 06:22:57;;;;;;;40.78;22.27;;;;;;;-1.33;65.04;94049.03;1676118;83;21083;-54
2021/12/26 06:25:35;;;;;;;24.95;16.17;;;;;;;-1.43;65.24;94047.12;1652248;85;21061;-54
2021/12/26 06:28:22;;;;;;;25.85;16.52;;;;;;;-1.49;65.29;94048.08;1670314;85;21063;-54
2021/12/26 06:31:06;;;;;;;20.52;14.35;;;;;;;-1.50;65.25;94049.84;1652346;86;21509;-54
2021/12/26 06:33:53;;;;;;;17.37;12.20;;;;;;;-1.52;65.16;94055.60;1574060;90;21473;-53
2021/12/26 06:36:27;;;;;;;16.50;11.38;;;;;;;-1.53;65.17;94064.85;1611356;86;20972;-55
2021/12/26 06:39:06;;;;;;;16.20;12.25;;;;;;;-1.61;65.01;94065.25;1700487;82;20993;-54
2021/12/26 06:41:51;;;;;;;16.65;11.85;;;;;;;-1.76;65.42;94062.36;1703494;84;21012;-54
2021/12/26 06:44:38;;;;;;;26.80;16.20;;;;;;;-1.76;65.60;94059.66;1698028;83;21621;-54
2021/12/26 06:47:09;;;;;;;23.20;14.68;;;;;;;-1.66;65.77;94065.64;1656002;83;21168;-53
2021/12/26 06:49:40;;;;;;;20.08;13.68;;;;;;;-1.53;65.56;94061.41;1677967;83;21052;-55
2021/12/26 06:52:07;;;;;;;16.02;12.53;;;;;;;-1.49;65.45;94060.22;1694917;83;21018;-55
2021/12/26 06:54:34;;;;;;;16.90;12.80;;;;;;;-1.40;65.13;94062.52;1703809;83;21012;-55
2021/12/26 06:57:01;;;;;;;18.02;12.93;;;;;;;-1.39;64.97;94064.84;1681853;84;21496;-55
2021/12/26 06:59:29;;;;;;;18.70;11.57;;;;;;;-1.43;65.11;94065.99;1692324;84;21219;-55
2021/12/26 07:01:58;;;;;;;19.02;12.78;;;;;;;-1.45;65.13;94062.92;1682164;84;21456;-56
2021/12/26 07:04:27;;;;;;;17.77;12.90;;;;;;;-1.40;65.14;94068.70;1679357;84;21110;-54
2021/12/26 07:06:54;;;;;;;19.48;13.35;;;;;;;-1.33;65.09;94076.01;1706786;83;21016;-55
2021/12/26 07:09:22;;;;;;;22.87;14.85;;;;;;;-1.21;65.00;94065.58;1690931;83;21032;-55
2021/12/26 07:11:49;;;;;;;27.02;17.92;;;;;;;-1.13;64.50;94069.78;1685597;83;21086;-56
2021/12/26 07:14:18;;;;;;;23.70;14.15;;;;;;;-1.14;64.68;94080.98;1659607;85;21618;-54
2021/12/26 07:16:45;;;;;;;21.68;14.63;;;;;;;-1.07;64.76;94076.34;1642418;85;21684;-55
2021/12/26 07:19:12;;;;;;;16.45;11.75;;;;;;;-1.00;64.31;94075.55;1660223;84;21543;-54
2021/12/26 07:21:40;;;;;;;15.53;11.75;;;;;;;-0.96;64.21;94073.01;1652003;85;20965;-53
2021/12/26 07:24:09;;;;;;;18.00;13.10;;;;;;;-0.99;63.96;94072.45;1655579;85;21139;-53
2021/12/26 07:26:36;;;;;;;12.95;11.55;;;;;;;-1.01;64.23;94079.38;1661657;85;21108;-54
2021/12/26 07:29:05;;;;;;;16.62;12.15;;;;;;;-0.98;64.26;94082.67;1652951;85;21072;-54
2021/12/26 07:31:34;;;;;;;20.80;14.47;;;;;;;-0.93;63.90;94087.66;1651472;85;21049;-54
2021/12/26 07:34:02;;;;;;;16.37;12.10;;;;;;;-0.90;63.95;94089.02;1662305;85;21072;-54
2021/12/26 07:36:30;;;;;;;18.67;12.30;;;;;;;-0.83;63.80;94088.20;1665465;85;21158;-55
2021/12/26 07:39:10;;;;;;;25.80;17.90;;;;;;;-0.81;63.45;94085.91;1616799;85;21038;-55
2021/12/26 07:41:37;;;;;;;61.77;32.98;;;;;;;-0.79;63.15;94083.58;1645765;85;21012;-54
2021/12/26 07:44:09;;;;;;;136.70;64.77;;;;;;;-0.76;63.28;94088.19;1653877;85;21197;-54
2021/12/26 07:46:45;;;;;;;101.25;49.63;;;;;;;-0.63;63.29;94086.60;1662573;85;20968;-54
2021/12/26 07:49:20;;;;;;;48.63;28.90;;;;;;;-0.45;62.88;94092.70;1659510;85;21198;-54
2021/12/26 07:52:11;;;;;;;55.25;32.00;;;;;;;-0.35;62.63;94087.23;1653189;85;21635;-54
2021/12/26 07:54:55;;;;;;;92.92;51.80;;;;;;;-0.25;62.32;94091.05;1656985;85;21623;-53
2021/12/26 07:57:48;;;;;;;57.23;33.23;;;;;;;-0.14;62.10;94095.80;1646062;85;21033;-54
2021/12/26 08:00:21;;;;;;;43.85;25.85;;;;;;;-0.02;61.74;94091.30;1614494;85;21087;-53
2021/12/26 08:02:55;;;;;;;39.90;24.15;;;;;;;0.08;61.19;94091.97;1650360;85;21182;-54
2021/12/26 08:05:40;;;;;;;23.38;15.90;;;;;;;0.06;60.80;94094.31;1649958;85;21029;-54
2021/12/26 08:08:14;;;;;;;39.40;32.25;;;;;;;0.08;60.68;94091.97;1664044;85;20985;-54
2021/12/26 08:10:42;;;;;;;35.83;20.43;;;;;;;-0.01;60.79;94099.77;1655816;85;21021;-53
2021/12/26 08:13:13;;;;;;;37.85;24.20;;;;;;;0.01;60.82;94097.44;1660631;85;21076;-55
2021/12/26 08:15:40;;;;;;;27.30;17.75;;;;;;;0.04;60.83;94093.19;1665612;85;21190;-55
2021/12/26 08:18:07;;;;;;;18.87;13.05;;;;;;;0.08;60.81;94098.73;1645728;85;21417;-56
2021/12/26 08:20:34;;;;;;;22.22;15.38;;;;;;;0.12;60.40;94094.09;1653614;85;21529;-55
2021/12/26 08:23:04;;;;;;;22.37;16.32;;;;;;;0.09;60.46;94088.70;1657594;85;21029;-54
2021/12/26 08:25:31;;;;;;;21.12;17.70;;;;;;;0.10;60.50;94093.73;1666416;85;21032;-55
2021/12/26 08:28:03;;;;;;;18.70;14.35;;;;;;;0.19;60.47;94098.09;1654413;85;21165;-58
2021/12/26 08:30:30;;;;;;;19.73;13.38;;;;;;;0.29;60.47;94097.26;1654343;85;21523;-55
2021/12/26 08:33:05;;;;;;;21.37;15.23;;;;;;;0.41;59.98;94099.47;1659359;85;20981;-55
2021/12/26 08:35:29;;;;;;;23.92;15.40;;;;;;;0.45;59.78;94102.91;1650060;85;20997;-55
2021/12/26 08:37:56;;;;;;;26.10;17.40;;;;;;;0.43;60.00;94102.54;1642722;85;21036;-54
2021/12/26 08:40:24;;;;;;;25.60;18.57;;;;;;;0.49;59.93;94098.83;1652388;85;21520;-55
2021/12/26 08:42:52;;;;;;;33.25;19.95;;;;;;;0.58;59.83;94108.63;1671294;85;21024;-55
2021/12/26 08:45:19;;;;;;;29.30;18.37;;;;;;;0.66;59.67;94112.23;1650396;85;21121;-55
2021/12/26 08:47:47;;;;;;;20.27;14.10;;;;;;;0.71;59.41;94110.44;1659312;85;21118;-55
2021/12/26 08:50:14;;;;;;;22.85;17.00;;;;;;;0.83;59.32;94103.19;1654239;85;21246;-55
2021/12/26 08:52:41;;;;;;;22.80;15.60;;;;;;;0.96;58.88;94108.27;1626923;85;21333;-55
2021/12/26 08:55:09;;;;;;;25.10;18.32;;;;;;;1.02;58.61;94108.03;1666284;85;21429;-56
2021/12/26 08:57:36;;;;;;;22.62;17.42;;;;;;;1.08;58.20;94102.92;1654328;85;21187;-54
2021/12/26 09:00:05;;;;;;;17.87;13.32;;;;;;;1.10;58.01;94097.90;1651118;85;21531;-55
2021/12/26 09:02:32;;;;;;;12.70;11.08;;;;;;;1.01;57.90;94103.00;1658559;85;21075;-55
2021/12/26 09:05:02;;;;;;;20.25;12.73;;;;;;;0.92;58.05;94109.49;1654322;85;21899;-55
2021/12/26 09:07:30;;;;;;;18.12;12.37;;;;;;;0.89;58.26;94102.92;1653893;85;21239;-56
2021/12/26 09:09:59;;;;;;;12.82;10.18;;;;;;;0.95;58.07;94099.96;1661534;84;21044;-56
2021/12/26 09:12:26;;;;;;;13.58;10.03;;;;;;;1.00;57.89;94100.88;1659988;85;21029;-55
2021/12/26 09:14:54;;;;;;;13.40;10.38;;;;;;;1.10;58.00;94098.66;1651690;85;21013;-55
2021/12/26 09:17:23;;;;;;;14.80;11.30;;;;;;;1.13;57.68;94101.91;1661724;85;21799;-55
2021/12/26 09:19:49;;;;;;;14.30;11.85;;;;;;;1.13;57.70;94098.45;1661337;85;21445;-55
2021/12/26 09:22:17;;;;;;;14.00;10.45;;;;;;;1.10;57.84;94098.66;1636899;86;20978;-55
2021/12/26 09:24:46;;;;;;;20.80;13.60;;;;;;;1.17;57.95;94084.27;1659844;85;21004;-56
2021/12/26 09:27:15;;;;;;;20.30;13.90;;;;;;;1.24;57.69;94084.97;1672973;84;21060;-55
2021/12/26 09:29:42;;;;;;;18.07;11.95;;;;;;;1.29;57.39;94080.45;1615297;85;21174;-56
2021/12/26 09:32:09;;;;;;;17.98;11.78;;;;;;;1.21;57.22;94079.01;1673474;85;20997;-55
2021/12/26 09:34:37;;;;;;;18.82;15.35;;;;;;;1.11;57.25;94078.52;1659695;85;21078;-54
2021/12/26 09:37:06;;;;;;;24.02;15.95;;;;;;;0.99;57.50;94084.44;1637687;85;21163;-54
2021/12/26 09:39:35;;;;;;;15.10;12.07;;;;;;;0.88;57.49;94081.09;1662358;85;21544;-54
2021/12/26 09:42:03;;;;;;;13.48;9.58;;;;;;;0.81;57.59;94078.43;1671342;85;21177;-55
2021/12/26 09:44:30;;;;;;;13.50;9.78;;;;;;;0.71;57.84;94083.95;1673523;85;21012;-55
2021/12/26 09:46:56;;;;;;;10.82;8.53;;;;;;;0.71;57.84;94084.73;1625192;86;21003;-56
2021/12/26 09:49:23;;;;;;;10.23;8.10;;;;;;;0.79;57.90;94086.19;1665513;85;21041;-55
2021/12/26 09:51:52;;;;;;;15.50;11.35;;;;;;;0.97;57.81;94084.08;1657983;85;21052;-54
2021/12/26 09:54:24;;;;;;;15.53;11.10;;;;;;;1.14;57.58;94076.95;1674121;85;21057;-55
2021/12/26 09:56:53;;;;;;;20.05;12.68;;;;;;;1.26;57.49;94081.27;1653457;85;21089;-55
2021/12/26 09:59:27;;;;;;;15.32;11.45;;;;;;;1.36;57.53;94076.30;1656770;85;21112;-55
2021/12/26 10:01:55;;;;;;;15.43;11.43;;;;;;;1.40;57.31;94080.33;1640654;85;21453;-55
2021/12/26 10:04:25;;;;;;;21.57;15.78;;;;;;;1.46;57.22;94080.05;1619464;85;21193;-55
2021/12/26 10:07:06;;;;;;;33.35;20.90;;;;;;;1.54;56.84;94070.08;1664790;85;21087;-55
2021/12/26 10:09:40;;;;;;;25.95;17.45;;;;;;;1.54;56.89;94072.79;1651217;85;21020;-55
2021/12/26 10:12:09;;;;;;;19.15;13.45;;;;;;;1.55;57.51;94065.44;1644871;85;20986;-55
2021/12/26 10:14:40;;;;;;;16.42;11.75;;;;;;;1.65;57.17;94069.97;1645903;85;21085;-55
2021/12/26 10:17:15;;;;;;;21.42;13.48;;;;;;;1.63;57.11;94062.81;1650628;85;21026;-55
2021/12/26 10:19:46;;;;;;;26.00;15.25;;;;;;;1.73;56.75;94065.38;1660656;85;20965;-55
2021/12/26 10:22:15;;;;;;;26.73;16.60;;;;;;;1.79;56.54;94054.28;1647191;85;20984;-54
2021/12/26 10:24:45;;;;;;;23.15;14.87;;;;;;;1.85;56.45;94066.20;1619639;85;21513;-55
2021/12/26 10:27:14;;;;;;;17.45;12.20;;;;;;;1.86;56.54;94065.02;1638783;86;21105;-55
2021/12/26 10:29:44;;;;;;;13.58;10.70;;;;;;;1.90;56.02;94065.73;1668240;85;21525;-55
2021/12/26 10:32:21;;;;;;;15.45;10.48;;;;;;;1.82;55.94;94060.23;1646090;85;21167;-55
2021/12/26 10:34:57;;;;;;;17.60;12.65;;;;;;;1.75;56.02;94053.56;1663744;85;21265;-56
2021/12/26 10:37:31;;;;;;;46.00;28.83;;;;;;;1.66;55.91;94053.28;1646779;85;21052;-54
2021/12/26 10:40:11;;;;;;;15.70;11.95;;;;;;;1.71;56.16;94047.41;1659717;85;21438;-55
2021/12/26 10:42:42;;;;;;;15.28;11.28;;;;;;;1.88;55.77;94049.11;1625978;85;20992;-55
2021/12/26 10:45:11;;;;;;;12.70;11.20;;;;;;;1.91;55.44;94042.28;1640053;85;21373;-55
2021/12/26 10:47:43;;;;;;;12.37;9.83;;;;;;;1.85;55.59;94038.51;1649858;85;21557;-55
2021/12/26 10:50:18;;;;;;;13.72;10.63;;;;;;;1.84;55.39;94044.33;1655717;85;21053;-55
2021/12/26 10:52:59;;;;;;;17.17;12.03;;;;;;;1.84;55.60;94044.33;1649600;85;21462;-55
2021/12/26 10:55:39;;;;;;;13.25;10.15;;;;;;;1.89;55.90;94045.22;1642495;85;21043;-55
2021/12/26 10:58:09;;;;;;;10.98;8.03;;;;;;;1.94;55.71;94048.24;1659352;85;21161;-54
2021/12/26 11:00:43;;;;;;;11.15;9.50;;;;;;;1.94;55.37;94040.71;1637058;85;21547;-56
2021/12/26 11:03:21;;;;;;;12.03;8.83;;;;;;;1.82;55.05;94045.33;1657188;85;20993;-55
2021/12/26 11:05:52;;;;;;;10.18;7.75;;;;;;;1.73;55.50;94043.12;1641365;85;20980;-55
2021/12/26 11:08:36;;;;;;;11.68;8.40;;;;;;;1.67;55.62;94039.16;1668993;85;20970;-55
2021/12/26 11:11:16;;;;;;;;;;;;;;;1.58;55.50;94041.02;1676176;85;21503;-56
2021/12/26 11:13:46;;;;;;;16.32;10.70;;;;;;;1.48;55.87;94041.16;1651370;85;20406;-55
2021/12/26 11:16:16;;;;;;;13.13;9.45;;;;;;;1.41;56.02;94048.78;1643937;85;21182;-54
2021/12/26 11:18:43;;;;;;;17.12;11.45;;;;;;;1.44;56.03;94046.61;1654486;85;21076;-55
2021/12/26 11:21:13;;;;;;;20.00;11.73;;;;;;;1.39;56.25;94040.29;1651626;85;21079;-56
2021/12/26 11:23:42;;;;;;;13.75;10.03;;;;;;;1.33;56.37;94042.49;1625497;85;21157;-55
2021/12/26 11:26:19;;;;;;;16.40;10.63;;;;;;;1.33;56.58;94039.19;1634903;86;20981;-55
2021/12/26 11:28:50;;;;;;;18.62;13.32;;;;;;;1.41;56.37;94042.58;1620761;87;21576;-56
2021/12/26 11:31:31;;;;;;;15.30;10.80;;;;;;;1.54;56.51;94040.87;1636533;85;21013;-56
2021/12/26 11:34:00;;;;;;;12.90;9.53;;;;;;;1.64;55.99;94039.38;1649156;85;21041;-55
2021/12/26 11:36:29;;;;;;;21.60;13.62;;;;;;;1.75;55.43;94031.88;1673795;85;21154;-55
2021/12/26 11:39:08;;;;;;;15.78;12.18;;;;;;;1.83;55.42;94038.16;1587757;88;21003;-56
2021/12/26 11:42:08;;;;;;;19.32;13.35;;;;;;;1.82;55.27;94035.27;1670629;85;21481;-54